Terminal Aerodrome Forecast
Issued by NWS Jackson, MS

Home | Current Version | Previous Version | Text Only | Print | Product List | Glossary On
Versions: 1 2 3 4 5 6 7 8 9 10 11 12 13 14 15
000
FTUS44 KMEG 201700
TAFTUP
TAF
KTUP 201720Z 2018/2118 22006KT P6SM SKC
     FM210000 19003KT P6SM FEW050 BKN150
     FM211100 19003KT P6SM SCT050 BKN150
     FM211500 20007KT P6SM BKN050 BKN100=

USA.gov is the U.S. government's official web portal to all federal, state and local government web resources and services.